createdAt,value
2022-08-02T00:13:45.745Z,64.37
2022-08-02T00:16:59.198Z,64.23
2022-08-02T00:33:01.263Z,64.39
2022-08-02T00:40:21.290Z,64.48
2022-08-02T00:43:06.258Z,64.59
2022-08-02T00:46:01.953Z,64.68
2022-08-02T00:48:27.483Z,64.54
2022-08-02T00:50:56.314Z,64.66
2022-08-02T00:53:23.600Z,64.77
2022-08-02T00:55:51.476Z,64.70
2022-08-02T00:58:20.403Z,64.76
2022-08-02T01:00:47.701Z,64.70
2022-08-02T01:03:15.094Z,64.66
2022-08-02T01:06:02.438Z,64.69
2022-08-02T01:08:31.776Z,64.87
2022-08-02T01:10:59.906Z,64.93
2022-08-02T01:13:27.851Z,64.79
2022-08-02T01:16:02.323Z,64.88
2022-08-02T01:18:38.415Z,64.87
2022-08-02T01:21:31.082Z,64.93
2022-08-02T01:24:12.280Z,64.91
2022-08-02T01:27:03.013Z,64.95
2022-08-02T01:29:34.251Z,65.14
2022-08-02T01:32:14.819Z,65.14
2022-08-02T01:34:56.339Z,65.18
2022-08-02T01:37:41.051Z,65.22
2022-08-02T01:40:17.205Z,65.32
2022-08-02T01:42:49.492Z,65.35
2022-08-02T01:45:20.088Z,65.39
2022-08-02T01:47:48.717Z,65.47
2022-08-02T01:50:18.521Z,65.57
2022-08-02T01:52:53.536Z,65.53
2022-08-02T01:55:33.622Z,65.70
2022-08-02T01:58:14.400Z,65.77
2022-08-02T02:00:44.028Z,65.86
2022-08-02T02:03:20.215Z,65.88
2022-08-02T02:05:49.850Z,66.00
2022-08-02T02:08:39.863Z,65.84
2022-08-02T02:12:06.075Z,65.92
2022-08-02T02:14:00.158Z,65.98
2022-08-02T02:16:29.031Z,66.00
2022-08-02T02:18:57.499Z,65.97
2022-08-02T02:21:25.560Z,66.01
2022-08-02T02:23:53.879Z,66.06
2022-08-02T02:26:30.986Z,66.05
2022-08-02T02:29:04.070Z,66.07
2022-08-02T02:31:36.249Z,66.10
2022-08-02T02:34:32.375Z,66.16
2022-08-02T02:37:04.731Z,66.18
2022-08-02T02:39:33.430Z,66.15
2022-08-02T02:42:03.882Z,66.29
2022-08-02T02:44:32.867Z,66.40
2022-08-02T02:47:02.071Z,66.45
2022-08-02T02:49:32.664Z,66.35
2022-08-02T02:52:00.697Z,66.50
2022-08-02T02:54:33.991Z,66.49
2022-08-02T02:57:06.009Z,66.55
2022-08-02T02:59:49.374Z,66.52
2022-08-02T03:02:18.558Z,66.62
2022-08-02T03:04:56.754Z,66.64
2022-08-02T03:07:27.712Z,66.78
2022-08-02T03:09:55.759Z,66.73
2022-08-02T03:12:30.289Z,66.78
2022-08-02T03:15:01.820Z,66.88
2022-08-02T03:17:43.238Z,66.85
2022-08-02T03:20:20.528Z,67.08
2022-08-02T03:22:48.210Z,67.03
2022-08-02T03:25:17.206Z,67.00
2022-08-02T03:27:45.237Z,67.10
2022-08-02T03:30:13.967Z,67.16
2022-08-02T03:32:46.288Z,67.19
2022-08-02T03:35:23.460Z,67.21
2022-08-02T03:37:56.426Z,67.25
2022-08-02T03:40:24.934Z,67.25
2022-08-02T03:42:54.109Z,67.29
2022-08-02T03:45:22.426Z,67.33
2022-08-02T03:47:50.274Z,67.30
2022-08-02T03:50:19.474Z,67.28
2022-08-02T03:52:47.671Z,67.48
2022-08-02T03:55:15.070Z,67.45
2022-08-02T03:57:43.485Z,67.38
2022-08-02T04:00:18.047Z,67.49
2022-08-02T04:02:45.420Z,67.64
2022-08-02T04:05:14.281Z,67.58
2022-08-02T04:08:02.618Z,67.67
2022-08-02T04:10:31.155Z,67.73
2022-08-02T04:12:59.184Z,67.72
2022-08-02T04:15:26.369Z,67.77
2022-08-02T04:17:59.737Z,67.83
2022-08-02T04:20:33.947Z,67.85
2022-08-02T04:23:07.109Z,67.88
2022-08-02T04:25:40.178Z,67.93
2022-08-02T04:28:17.713Z,68.05
2022-08-02T04:30:49.680Z,68.44
2022-08-02T04:33:18.228Z,68.36
2022-08-02T04:35:45.600Z,67.90
2022-08-02T04:38:14.824Z,67.48
2022-08-02T04:40:51.521Z,67.16
2022-08-02T04:43:19.897Z,66.34
2022-08-02T04:45:51.167Z,66.17
2022-08-02T04:48:19.170Z,65.31
2022-08-02T04:50:46.617Z,65.34
2022-08-02T04:53:13.994Z,66.15
2022-08-02T04:55:41.547Z,66.33
2022-08-02T04:58:24.115Z,65.98
2022-08-02T05:00:56.884Z,65.66
2022-08-02T05:03:24.937Z,65.62
2022-08-02T05:05:52.090Z,65.32
2022-08-02T05:08:19.597Z,64.03
2022-08-02T05:10:46.851Z,64.54
2022-08-02T05:13:14.118Z,64.08
2022-08-02T05:15:41.431Z,63.09
2022-08-02T05:18:09.381Z,62.03
2022-08-02T05:20:36.556Z,62.17
2022-08-02T05:23:04.103Z,61.86
2022-08-02T05:25:31.459Z,62.11
2022-08-02T05:27:58.623Z,61.42
2022-08-02T05:30:26.021Z,61.00
2022-08-02T05:32:53.866Z,60.26
2022-08-02T05:35:22.721Z,61.17
2022-08-02T05:37:51.227Z,60.52
2022-08-02T05:40:25.647Z,60.00
2022-08-02T05:42:54.658Z,59.95
2022-08-02T05:45:22.885Z,60.51
2022-08-02T05:47:50.964Z,60.15
2022-08-02T05:50:19.181Z,58.87
2022-08-02T05:52:51.630Z,58.92
2022-08-02T05:55:26.831Z,58.95
2022-08-02T05:58:15.871Z,58.89
2022-08-02T06:00:47.545Z,57.32
2022-08-02T06:03:20.637Z,57.22
2022-08-02T06:05:50.927Z,57.65
2022-08-02T06:08:21.222Z,57.65
2022-08-02T06:10:50.879Z,57.16
2022-08-02T06:13:17.977Z,56.84
2022-08-02T06:15:53.666Z,56.50
2022-08-02T06:18:27.586Z,56.03
2022-08-02T06:22:31.753Z,56.03
2022-08-02T06:23:57.714Z,55.83
2022-08-02T06:26:29.130Z,55.64
2022-08-02T06:28:58.036Z,55.88
2022-08-02T06:31:25.977Z,55.71
2022-08-02T06:33:53.970Z,55.24
2022-08-02T06:36:36.156Z,55.21
2022-08-02T06:39:14.335Z,55.24
2022-08-02T06:41:44.006Z,54.71
2022-08-02T06:44:45.631Z,54.12
2022-08-02T06:47:12.353Z,53.80
2022-08-02T06:49:52.108Z,54.10
2022-08-02T06:52:30.740Z,53.15
2022-08-02T06:54:59.963Z,52.57
2022-08-02T06:57:28.377Z,52.78
2022-08-02T06:59:56.213Z,52.55
2022-08-02T07:02:24.571Z,51.27
2022-08-02T07:04:51.996Z,51.74
2022-08-02T07:07:19.547Z,52.45
2022-08-02T07:10:00.858Z,51.95
2022-08-02T07:12:31.207Z,50.30
2022-08-02T07:15:00.724Z,49.75
2022-08-02T07:17:29.229Z,49.73
2022-08-02T07:19:57.274Z,49.14
2022-08-02T07:22:28.397Z,49.63
2022-08-02T07:24:57.684Z,48.61
2022-08-02T07:27:25.473Z,48.79
2022-08-02T07:29:54.493Z,48.80
2022-08-02T07:32:24.558Z,47.71
2022-08-02T07:34:55.163Z,48.38
2022-08-02T07:37:53.789Z,47.79
2022-08-02T07:40:19.857Z,47.15
2022-08-02T07:42:52.680Z,45.48
2022-08-02T07:45:22.316Z,45.73
2022-08-02T07:48:10.918Z,45.79
2022-08-02T07:50:43.365Z,45.48
2022-08-02T07:53:10.730Z,45.15
2022-08-02T07:55:40.328Z,45.47
2022-08-02T07:58:13.197Z,44.86
2022-08-02T08:00:43.483Z,44.24
2022-08-02T08:03:11.211Z,43.50
2022-08-02T08:05:38.803Z,44.08
2022-08-02T08:08:06.361Z,44.02
2022-08-02T08:10:33.993Z,43.27
2022-08-02T08:13:02.059Z,43.34
2022-08-02T08:15:29.998Z,42.83
2022-08-02T08:17:57.375Z,42.05
2022-08-02T08:20:24.863Z,41.35
2022-08-02T08:22:52.867Z,41.99
2022-08-02T08:25:20.108Z,42.20
2022-08-02T08:27:51.825Z,41.26
2022-08-02T08:30:22.467Z,41.38
2022-08-02T08:32:50.442Z,41.01
2022-08-02T08:35:17.834Z,41.07
2022-08-02T08:37:45.769Z,41.47
2022-08-02T08:40:19.574Z,41.11
2022-08-02T08:42:47.942Z,40.62
2022-08-02T08:45:17.549Z,40.86
2022-08-02T08:47:51.004Z,40.75
2022-08-02T08:50:25.422Z,39.95
2022-08-02T08:53:00.253Z,40.23
2022-08-02T08:55:28.735Z,39.28
2022-08-02T08:57:59.171Z,39.12
2022-08-02T09:00:27.132Z,39.47
2022-08-02T09:02:54.792Z,39.50
2022-08-02T09:05:26.856Z,39.67
2022-08-02T09:07:54.612Z,39.40
2022-08-02T09:10:54.964Z,38.76
2022-08-02T09:13:38.811Z,39.28
2022-08-02T09:16:14.953Z,39.10
2022-08-02T09:18:45.762Z,39.18
2022-08-02T09:21:15.842Z,38.98
2022-08-02T09:23:47.789Z,39.01
2022-08-02T09:26:22.101Z,39.04
2022-08-02T09:28:53.086Z,39.20
2022-08-02T09:31:22.439Z,39.19
2022-08-02T09:33:58.868Z,39.43
2022-08-02T09:36:36.516Z,39.58
2022-08-02T09:39:07.545Z,39.51
2022-08-02T09:41:37.608Z,39.45
2022-08-02T09:44:07.124Z,38.71
2022-08-02T09:46:39.261Z,38.51
2022-08-02T09:49:17.378Z,39.17
2022-08-02T09:51:55.089Z,39.17
2022-08-02T09:54:33.138Z,39.11
2022-08-02T09:57:02.475Z,38.50
2022-08-02T09:59:30.675Z,38.18
2022-08-02T10:02:02.205Z,37.98
2022-08-02T10:04:34.360Z,38.55
2022-08-02T10:07:06.839Z,38.19
2022-08-02T10:09:34.644Z,38.56
2022-08-02T10:12:03.477Z,38.61
2022-08-02T10:14:37.465Z,38.54
2022-08-02T10:17:06.341Z,38.62
2022-08-02T10:20:03.428Z,38.36
2022-08-02T10:22:25.306Z,38.11
2022-08-02T10:24:54.085Z,38.00
2022-08-02T10:27:24.891Z,38.34
2022-08-02T10:29:57.457Z,38.33
2022-08-02T10:32:37.365Z,38.37
2022-08-02T10:35:19.877Z,38.19
2022-08-02T10:37:56.946Z,38.24
2022-08-02T10:40:28.383Z,38.20
2022-08-02T10:43:00.868Z,38.23
2022-08-02T10:45:28.956Z,38.49
2022-08-02T10:48:04.164Z,38.42
2022-08-02T10:50:56.495Z,38.40
2022-08-02T10:53:31.443Z,38.13
2022-08-02T10:56:01.547Z,38.42
2022-08-02T10:58:32.916Z,38.56
2022-08-02T11:01:06.485Z,38.57
2022-08-02T11:03:40.100Z,38.64
2022-08-02T11:06:25.956Z,38.14
2022-08-02T11:09:31.403Z,38.05
2022-08-02T11:12:03.149Z,38.08
2022-08-02T11:14:32.191Z,38.24
2022-08-02T11:17:00.991Z,38.33
2022-08-02T11:19:29.338Z,38.13
2022-08-02T11:22:02.126Z,38.13
2022-08-02T11:24:34.405Z,38.21
2022-08-02T11:27:03.435Z,38.16
2022-08-02T11:29:41.644Z,38.13
2022-08-02T11:32:17.497Z,38.32
2022-08-02T11:34:47.299Z,37.90
2022-08-02T11:37:37.963Z,38.18
2022-08-02T11:40:13.150Z,38.28
2022-08-02T11:42:53.247Z,38.34
2022-08-02T11:45:30.222Z,38.40
2022-08-02T11:47:57.853Z,37.91
2022-08-02T11:50:30.240Z,37.92
2022-08-02T11:52:58.362Z,37.95
2022-08-02T11:55:32.054Z,37.94
2022-08-02T11:58:05.919Z,38.16
2022-08-02T12:00:33.958Z,38.31
2022-08-02T12:03:01.827Z,38.28
2022-08-02T12:08:22.173Z,38.09
2022-08-02T12:10:52.838Z,38.43
2022-08-02T12:13:20.552Z,38.43
2022-08-02T12:15:48.079Z,38.27
2022-08-02T12:18:39.807Z,38.09
2022-08-02T12:21:26.814Z,38.08
2022-08-02T12:23:59.310Z,38.20
2022-08-02T12:26:29.405Z,38.25
2022-08-02T12:28:58.193Z,38.18
2022-08-02T12:31:56.028Z,38.14
2022-08-02T12:34:32.015Z,38.17
2022-08-02T12:37:05.378Z,38.10
2022-08-02T12:39:45.457Z,38.12
2022-08-02T12:42:15.110Z,38.18
2022-08-02T12:44:58.730Z,38.31
2022-08-02T12:47:35.772Z,38.42
2022-08-02T12:50:25.936Z,38.32
2022-08-02T12:53:30.476Z,38.33
2022-08-02T12:56:02.324Z,38.37
2022-08-02T12:58:31.514Z,38.27
2022-08-02T13:01:01.330Z,38.15
2022-08-02T13:04:10.816Z,38.16
2022-08-02T13:06:41.342Z,38.32
2022-08-02T13:09:13.256Z,38.24
2022-08-02T13:11:43.436Z,38.00
2022-08-02T13:14:12.894Z,37.95
2022-08-02T13:16:41.150Z,37.82
2022-08-02T13:19:08.731Z,38.01
2022-08-02T13:21:41.089Z,38.10
2022-08-02T13:24:38.156Z,37.91
2022-08-02T13:27:08.254Z,37.92
2022-08-02T13:29:38.390Z,37.67
2022-08-02T13:32:06.115Z,37.57
2022-08-02T13:34:33.387Z,37.54
2022-08-02T13:37:02.312Z,37.65
2022-08-02T13:39:29.603Z,37.91
2022-08-02T13:41:56.707Z,37.68
2022-08-02T13:44:24.252Z,37.56
2022-08-02T13:46:51.475Z,37.73
2022-08-02T13:49:20.181Z,37.88
2022-08-02T13:51:49.998Z,37.91
2022-08-02T13:54:17.559Z,37.76
2022-08-02T13:56:45.025Z,37.61
2022-08-02T13:59:54.749Z,37.17
2022-08-02T14:02:00.182Z,37.42
2022-08-02T14:04:30.449Z,37.22
2022-08-02T14:06:58.879Z,37.14
2022-08-02T14:09:27.177Z,37.27
2022-08-02T14:11:54.892Z,37.33
2022-08-02T14:14:24.128Z,37.46
2022-08-02T14:16:52.981Z,37.43
2022-08-02T14:19:21.776Z,37.48
2022-08-02T14:21:50.039Z,37.57
2022-08-02T14:24:20.017Z,37.40
2022-08-02T14:26:48.716Z,37.31
2022-08-02T14:29:17.199Z,37.50
2022-08-02T14:31:45.342Z,37.51
2022-08-02T14:34:13.433Z,37.49
2022-08-02T14:36:40.658Z,37.57
2022-08-02T14:39:07.986Z,37.57
2022-08-02T14:41:59.801Z,37.57
2022-08-02T14:44:24.791Z,37.56
2022-08-02T14:46:52.988Z,37.58
2022-08-02T14:49:25.579Z,37.46
2022-08-02T14:51:54.914Z,37.40
2022-08-02T14:54:28.302Z,37.39
2022-08-02T14:57:01.043Z,37.52
2022-08-02T14:59:28.655Z,37.48
2022-08-02T15:01:56.646Z,37.51
2022-08-02T15:04:25.474Z,37.45
2022-08-02T15:06:53.766Z,37.42
2022-08-02T15:09:22.112Z,37.38
2022-08-02T15:11:50.490Z,37.40
2022-08-02T15:14:21.871Z,37.36
2022-08-02T15:16:57.244Z,37.45
2022-08-02T15:19:50.366Z,37.54
2022-08-02T15:22:16.768Z,37.53
2022-08-02T15:24:46.943Z,37.34
2022-08-02T15:27:15.281Z,37.47
2022-08-02T15:29:44.552Z,37.47
2022-08-02T15:32:13.210Z,37.54
2022-08-02T15:34:40.845Z,37.47
2022-08-02T15:37:08.521Z,37.62
2022-08-02T15:39:36.245Z,37.55
2022-08-02T15:42:04.013Z,37.54
2022-08-02T15:44:31.755Z,37.57
2022-08-02T15:46:59.214Z,37.44
2022-08-02T15:49:26.846Z,37.53
2022-08-02T15:51:54.988Z,37.50
2022-08-02T15:54:22.693Z,37.42
2022-08-02T15:56:50.651Z,37.59
2022-08-02T15:59:18.226Z,37.62
2022-08-02T16:01:47.953Z,37.59
2022-08-02T16:04:16.158Z,37.63
2022-08-02T16:06:44.445Z,37.71
2022-08-02T16:09:11.955Z,37.57
2022-08-02T16:11:39.443Z,37.69
2022-08-02T16:14:07.514Z,37.54
2022-08-02T16:16:36.282Z,37.69
2022-08-02T16:19:46.656Z,37.62
2022-08-02T16:21:53.650Z,37.72
2022-08-02T16:24:21.205Z,37.74
2022-08-02T16:26:49.187Z,37.65
2022-08-02T16:29:19.395Z,37.60
2022-08-02T16:31:47.894Z,37.62
2022-08-02T16:34:16.529Z,37.73
2022-08-02T16:36:45.635Z,37.78
2022-08-02T16:39:12.932Z,37.82
2022-08-02T16:41:51.065Z,37.85
2022-08-02T16:44:29.184Z,37.93
2022-08-02T16:47:01.078Z,37.83
2022-08-02T16:50:04.577Z,37.81
2022-08-02T16:52:19.904Z,37.78
2022-08-02T16:54:49.391Z,37.89
2022-08-02T16:57:19.571Z,37.94
2022-08-02T17:02:51.948Z,37.93
2022-08-02T17:05:57.006Z,38.01
2022-08-02T17:08:54.653Z,38.01
2022-08-02T17:11:48.025Z,38.03
2022-08-02T17:14:55.008Z,38.13
2022-08-02T17:17:47.427Z,38.00
2022-08-02T17:20:33.194Z,38.10
2022-08-02T17:23:20.840Z,38.25
2022-08-02T17:26:13.386Z,38.40
2022-08-02T17:29:15.783Z,38.30
2022-08-02T17:32:14.960Z,38.36
2022-08-02T17:35:09.950Z,38.67
2022-08-02T17:38:09.115Z,38.65
2022-08-02T17:40:42.718Z,38.73
2022-08-02T17:43:14.504Z,38.90
2022-08-02T17:46:00.932Z,38.85
2022-08-02T17:48:50.035Z,39.07
2022-08-02T17:52:16.003Z,39.07
2022-08-02T17:54:07.494Z,39.34
2022-08-02T17:56:37.779Z,39.33
2022-08-02T17:59:30.757Z,39.33
2022-08-02T18:02:03.475Z,39.32
2022-08-02T18:04:32.308Z,39.25
2022-08-02T18:07:03.990Z,39.48
2022-08-02T18:09:32.325Z,39.67
2022-08-02T18:12:02.303Z,39.76
2022-08-02T18:14:30.005Z,39.69
2022-08-02T18:16:58.358Z,39.71
2022-08-02T18:22:14.498Z,40.18
2022-08-02T18:24:44.930Z,40.26
2022-08-02T18:27:12.807Z,40.39
2022-08-02T18:29:40.043Z,40.48
2022-08-02T18:32:11.692Z,40.34
2022-08-02T18:34:39.465Z,40.41
2022-08-02T18:37:07.234Z,40.52
2022-08-02T18:39:38.476Z,40.50
2022-08-02T18:42:06.014Z,40.62
2022-08-02T18:44:33.146Z,40.69
2022-08-02T18:47:01.708Z,40.77
2022-08-02T18:49:46.693Z,40.73
2022-08-02T18:52:15.874Z,41.04
2022-08-02T18:54:58.858Z,41.11
2022-08-02T18:58:01.782Z,41.33
2022-08-02T19:00:14.565Z,41.49
2022-08-02T19:02:42.342Z,41.48
2022-08-02T19:05:13.179Z,41.56
2022-08-02T19:07:49.802Z,41.75
2022-08-02T19:10:19.925Z,41.90
2022-08-02T19:12:47.241Z,41.95
2022-08-02T19:15:19.223Z,42.06
2022-08-02T19:17:53.556Z,42.06
2022-08-02T19:20:24.092Z,42.25
2022-08-02T19:22:53.762Z,42.45
2022-08-02T19:25:27.561Z,42.41
2022-08-02T19:27:56.055Z,42.59
2022-08-02T19:30:25.647Z,42.75
2022-08-02T19:32:59.325Z,42.63
2022-08-02T19:35:30.572Z,42.61
2022-08-02T19:38:10.004Z,42.85
2022-08-02T19:40:38.964Z,43.06
2022-08-02T19:44:27.475Z,43.30
2022-08-02T19:45:56.840Z,43.27
2022-08-02T19:48:25.379Z,43.31
2022-08-02T19:50:56.148Z,43.64
2022-08-02T19:53:48.188Z,43.72
2022-08-02T19:56:20.958Z,43.74
2022-08-02T19:58:54.810Z,43.47
2022-08-02T20:01:37.368Z,43.59
2022-08-02T20:04:13.042Z,43.87
2022-08-02T20:06:45.738Z,44.18
2022-08-02T20:09:16.657Z,44.32
2022-08-02T20:11:47.267Z,44.22
2022-08-02T20:14:26.906Z,44.40
2022-08-02T20:16:56.169Z,44.52
2022-08-02T20:19:29.571Z,44.66
2022-08-02T20:21:59.580Z,44.68
2022-08-02T20:24:29.508Z,44.83
2022-08-02T20:26:59.243Z,45.25
2022-08-02T20:29:43.368Z,45.26
2022-08-02T20:32:14.205Z,45.44
2022-08-02T20:34:41.711Z,45.38
2022-08-02T20:37:59.192Z,45.45
2022-08-02T20:39:56.657Z,45.62
2022-08-02T20:42:24.683Z,45.62
2022-08-02T20:44:53.677Z,45.90
2022-08-02T20:47:28.429Z,45.90
2022-08-02T20:50:31.704Z,46.18
2022-08-02T20:53:01.014Z,46.21
2022-08-02T20:58:21.505Z,46.35
2022-08-02T21:00:59.545Z,46.38
2022-08-02T21:03:38.875Z,46.48
2022-08-02T21:06:11.162Z,46.41
2022-08-02T21:08:46.216Z,46.53
2022-08-02T21:11:14.229Z,46.61
2022-08-02T21:16:29.599Z,46.90
2022-08-02T21:18:59.937Z,46.96
2022-08-02T21:21:29.710Z,47.11
2022-08-02T21:24:01.462Z,47.08
2022-08-02T21:26:30.629Z,47.21
2022-08-02T21:29:03.277Z,47.34
2022-08-02T21:31:35.493Z,47.47
2022-08-02T21:34:21.887Z,47.47
2022-08-02T21:36:52.932Z,47.58
2022-08-02T21:39:20.941Z,47.58
2022-08-02T21:41:49.084Z,47.65
2022-08-02T21:44:18.936Z,47.68
2022-08-02T21:46:49.464Z,47.87
2022-08-02T21:49:40.938Z,48.01
2022-08-02T21:52:10.151Z,48.17
2022-08-02T21:54:39.684Z,48.10
2022-08-02T21:57:15.189Z,48.32
2022-08-02T21:59:46.437Z,48.28
2022-08-02T22:02:14.349Z,48.44
2022-08-02T22:04:48.023Z,48.62
2022-08-02T22:07:23.993Z,48.65
2022-08-02T22:09:52.871Z,48.71
2022-08-02T22:12:20.983Z,48.82
2022-08-02T22:14:55.749Z,48.89
2022-08-02T22:17:46.815Z,48.89
2022-08-02T22:20:19.765Z,49.15
2022-08-02T22:22:50.542Z,49.13
2022-08-02T22:25:37.808Z,49.08
2022-08-02T22:28:39.446Z,49.09
2022-08-02T22:30:57.547Z,49.27
2022-08-02T22:34:00.299Z,49.40
2022-08-02T22:36:31.126Z,49.46
2022-08-02T22:38:59.736Z,49.48
2022-08-02T22:42:01.140Z,49.70
2022-08-02T22:44:18.423Z,49.76
2022-08-02T22:46:46.888Z,49.79
2022-08-02T22:49:38.051Z,49.77
2022-08-02T22:52:06.072Z,49.74
2022-08-02T22:54:34.548Z,49.73
2022-08-02T22:57:01.906Z,49.84
2022-08-02T22:58:50.119Z,37.95
2022-08-02T22:59:02.194Z,46.76
2022-08-02T22:59:05.858Z,46.27
2022-08-02T22:59:10.149Z,39.97
2022-08-02T22:59:39.052Z,49.80
2022-08-02T23:02:08.352Z,49.91
2022-08-02T23:04:36.466Z,49.94
2022-08-02T23:07:03.926Z,50.05
2022-08-02T23:09:31.895Z,50.08
2022-08-02T23:11:59.142Z,50.27
2022-08-02T23:14:26.500Z,50.28
2022-08-02T23:17:13.147Z,50.33
2022-08-02T23:19:53.035Z,50.48
2022-08-02T23:22:29.520Z,50.60
2022-08-02T23:24:58.850Z,50.69
2022-08-02T23:27:27.115Z,50.65
2022-08-02T23:29:55.079Z,50.59
2022-08-02T23:32:22.862Z,50.76
2022-08-02T23:34:54.373Z,50.82
2022-08-02T23:37:22.370Z,50.79
2022-08-02T23:39:50.436Z,50.91
2022-08-02T23:42:18.120Z,50.90
2022-08-02T23:44:45.458Z,50.93
2022-08-02T23:47:13.018Z,51.04
2022-08-02T23:49:41.002Z,51.03
2022-08-02T23:52:08.661Z,51.01
2022-08-02T23:54:35.933Z,51.10
2022-08-02T23:57:20.997Z,51.18
2022-08-02T23:59:50.628Z,51.34
